Upstream stations:
Downstream station:
SHEF ID: WANO2 Cimarron River near Waynoka, OK
STATION TYPE:
Regulating: Stage = 9.00, Flow = 4032
PRECIP STAGE RIV-FLOW BAT-LOAD
in ft cfs volt
Ccp-Rev Ccp-Rev Ccp-Rev Ccp-Rev
(US/Central)
02/05 00:00 0.00 5.86 76 12.73
02/05 01:00 0.00 5.86 76 12.73
02/05 02:00 0.00 5.86 76 12.65
02/05 03:00 0.00 5.87 78 12.65
02/05 04:00 0.00 5.87 78 12.65
02/05 05:00 0.00 5.84 72 12.65
02/05 06:00 0.00 5.83 70 12.65
02/05 07:00 0.00 5.83 70 12.65
02/05 08:00 0.00 5.81 66 12.57
02/05 09:00 0.00 5.78 60 12.73
02/05 10:00 0.00 5.70 46 13.53
02/05 11:00 0.00 5.73 51 13.92
02/05 12:00 0.00 5.74 53 13.84
02/05 13:00 0.00 5.73 51 13.84
02/05 14:00 0.00 5.71 48 13.84
02/05 15:00 0.00 5.73 51 13.76
02/05 16:00 0.00 5.74 53 13.76
02/05 17:00 0.00 5.78 60 13.68
02/05 18:00 0.00 5.80 64 13.60
02/05 19:00 0.00 5.80 64 13.21
02/05 20:00 0.00 5.79 62 12.97
02/05 21:00 0.00 5.77 58 12.81
02/05 22:00 0.00 5.75 54 12.81
02/05 23:00 0.00 5.75 54 12.73